createdAt,value
2018-06-03T00:02:10.291Z,40.70
2018-06-03T00:04:37.805Z,40.43
2018-06-03T00:07:05.321Z,42.20
2018-06-03T00:09:32.859Z,41.17
2018-06-03T00:12:00.535Z,40.53
2018-06-03T00:14:28.043Z,43.07
2018-06-03T00:16:55.882Z,42.57
2018-06-03T00:19:23.403Z,41.10
2018-06-03T00:21:50.927Z,43.60
2018-06-03T00:24:18.475Z,41.70
2018-06-03T00:26:45.977Z,43.27
2018-06-03T00:29:13.538Z,43.37
2018-06-03T00:31:41.160Z,42.83
2018-06-03T00:34:08.668Z,43.03
2018-06-03T00:36:43.073Z,41.80
2018-06-03T00:39:10.632Z,41.47
2018-06-03T00:41:38.292Z,41.63
2018-06-03T00:44:05.825Z,41.20
2018-06-03T00:46:33.340Z,44.17
2018-06-03T00:49:00.876Z,42.63
2018-06-03T00:51:28.419Z,42.50
2018-06-03T00:53:55.928Z,42.67
2018-06-03T00:56:35.493Z,41.57
2018-06-03T00:59:03.006Z,44.60
2018-06-03T01:01:30.575Z,44.67
2018-06-03T01:03:58.115Z,44.70
2018-06-03T01:06:25.621Z,43.80
2018-06-03T01:08:53.389Z,42.77
2018-06-03T01:11:20.973Z,46.20
2018-06-03T01:13:48.477Z,45.57
2018-06-03T01:16:15.996Z,43.80
2018-06-03T01:18:43.542Z,46.27
2018-06-03T01:21:11.120Z,42.13
2018-06-03T01:23:38.651Z,43.83
2018-06-03T01:26:06.225Z,40.83
2018-06-03T01:28:33.736Z,42.43
2018-06-03T01:31:01.315Z,46.67
2018-06-03T01:33:28.870Z,45.70
2018-06-03T01:35:56.388Z,44.13
2018-06-03T01:38:24.030Z,50.20
2018-06-03T01:40:51.863Z,45.67
2018-06-03T01:43:19.451Z,47.20
2018-06-03T01:46:15.378Z,45.83
2018-06-03T01:48:44.187Z,46.40
2018-06-03T01:51:12.799Z,44.47
2018-06-03T01:53:41.781Z,45.43
2018-06-03T01:56:11.760Z,45.53
2018-06-03T01:58:42.419Z,46.30
2018-06-03T02:01:16.577Z,43.50
2018-06-03T02:03:46.652Z,43.47
2018-06-03T02:06:15.953Z,45.27
2018-06-03T02:08:45.739Z,43.47
2018-06-03T02:11:15.479Z,44.70
2018-06-03T02:13:46.727Z,44.70
2018-06-03T02:16:16.958Z,41.70
2018-06-03T02:18:45.869Z,42.87
2018-06-03T02:21:15.549Z,45.37
2018-06-03T02:23:45.766Z,44.93
2018-06-03T02:26:17.646Z,44.67
2018-06-03T02:28:46.998Z,46.57
2018-06-03T02:31:18.231Z,45.77
2018-06-03T02:33:47.995Z,43.37
2018-06-03T02:36:18.287Z,42.10
2018-06-03T02:38:47.619Z,42.27
2018-06-03T02:41:17.237Z,41.70
2018-06-03T02:43:46.677Z,41.67
2018-06-03T02:46:17.749Z,40.20
2018-06-03T02:48:46.451Z,42.43
2018-06-03T02:51:15.868Z,40.57
2018-06-03T02:53:44.510Z,38.87
2018-06-03T02:56:15.047Z,41.57
2018-06-03T02:58:44.242Z,40.90
2018-06-03T03:01:13.313Z,39.20
2018-06-03T03:03:42.278Z,39.97
2018-06-03T03:06:11.324Z,40.40
2018-06-03T03:08:40.825Z,37.33
2018-06-03T03:11:10.234Z,36.63
2018-06-03T03:13:38.994Z,36.90
2018-06-03T03:16:07.952Z,39.30
2018-06-03T03:18:38.045Z,37.67
2018-06-03T03:21:06.956Z,38.23
2018-06-03T03:23:35.890Z,36.67
2018-06-03T03:26:05.222Z,36.83
2018-06-03T03:28:34.975Z,35.37
2018-06-03T03:31:03.656Z,37.07
2018-06-03T03:33:32.649Z,35.10
2018-06-03T03:36:02.033Z,35.47
2018-06-03T03:38:32.050Z,35.90
2018-06-03T03:41:01.506Z,35.70
2018-06-03T03:43:30.614Z,35.87
2018-06-03T03:46:00.256Z,35.50
2018-06-03T03:48:29.468Z,36.13
2018-06-03T03:50:58.475Z,36.10
2018-06-03T03:53:27.249Z,36.70
2018-06-03T03:55:56.263Z,37.87
2018-06-03T03:58:26.374Z,38.60
2018-06-03T04:00:55.373Z,39.00
2018-06-03T04:03:24.978Z,37.00
2018-06-03T04:05:54.505Z,37.40
2018-06-03T04:08:23.139Z,37.57
2018-06-03T04:10:52.846Z,37.23
2018-06-03T04:13:22.060Z,35.40
2018-06-03T04:15:51.802Z,35.23
2018-06-03T04:18:21.332Z,34.80
2018-06-03T04:20:51.498Z,36.53
2018-06-03T04:23:20.327Z,38.23
2018-06-03T04:25:51.379Z,35.47
2018-06-03T04:28:22.713Z,35.47
2018-06-03T04:30:52.264Z,35.77
2018-06-03T04:33:21.528Z,35.00
2018-06-03T04:35:50.821Z,36.70
2018-06-03T04:38:20.328Z,37.00
2018-06-03T04:40:50.540Z,34.50
2018-06-03T04:43:20.081Z,36.70
2018-06-03T04:45:48.696Z,34.27
2018-06-03T04:48:20.045Z,36.97
2018-06-03T04:50:49.399Z,35.37
2018-06-03T04:53:19.750Z,36.33
2018-06-03T04:55:50.663Z,35.90
2018-06-03T04:58:20.232Z,37.23
2018-06-03T05:00:49.550Z,36.67
2018-06-03T05:03:20.101Z,34.40
2018-06-03T05:05:49.708Z,36.90
2018-06-03T05:08:20.109Z,39.87
2018-06-03T05:10:49.860Z,37.60
2018-06-03T05:13:19.445Z,36.90
2018-06-03T05:15:49.831Z,36.73
2018-06-03T05:18:20.500Z,39.30
2018-06-03T05:20:50.039Z,39.10
2018-06-03T05:23:20.373Z,38.33
2018-06-03T05:25:51.268Z,39.97
2018-06-03T05:28:20.041Z,37.73
2018-06-03T05:30:49.871Z,38.30
2018-06-03T05:33:18.553Z,40.90
2018-06-03T05:35:47.865Z,37.47
2018-06-03T05:38:18.596Z,40.60
2018-06-03T05:40:47.856Z,40.80
2018-06-03T05:43:17.854Z,39.90
2018-06-03T05:45:47.015Z,44.63
2018-06-03T05:48:15.697Z,41.50
2018-06-03T05:50:44.872Z,42.23
2018-06-03T05:53:16.170Z,40.57
2018-06-03T05:55:45.244Z,40.23
2018-06-03T05:58:15.604Z,40.77
2018-06-03T06:00:47.062Z,40.93
2018-06-03T06:03:16.649Z,39.63
2018-06-03T06:05:46.813Z,39.83
2018-06-03T06:08:15.864Z,41.60
2018-06-03T06:10:46.156Z,41.23
2018-06-03T06:13:15.737Z,40.77
2018-06-03T06:15:46.324Z,43.23
2018-06-03T06:18:16.601Z,41.90
2018-06-03T06:20:45.422Z,43.40
2018-06-03T06:23:16.968Z,41.50
2018-06-03T06:25:48.762Z,44.07
2018-06-03T06:28:19.932Z,42.03
2018-06-03T06:30:50.456Z,43.07
2018-06-03T06:33:20.094Z,43.73
2018-06-03T06:35:50.562Z,41.60
2018-06-03T06:38:20.002Z,43.03
2018-06-03T06:40:49.251Z,43.30
2018-06-03T06:43:18.490Z,43.77
2018-06-03T06:45:48.923Z,45.87
2018-06-03T06:48:18.638Z,42.80
2018-06-03T06:50:49.326Z,43.73
2018-06-03T06:53:20.111Z,43.57
2018-06-03T06:55:50.291Z,45.17
2018-06-03T06:58:21.857Z,42.03
2018-06-03T07:00:53.474Z,42.47
2018-06-03T07:03:23.516Z,42.50
2018-06-03T07:05:54.877Z,45.70
2018-06-03T07:08:23.600Z,44.67
2018-06-03T07:10:53.022Z,43.97
2018-06-03T07:13:24.289Z,45.30
2018-06-03T07:15:54.183Z,44.43
2018-06-03T07:18:25.304Z,46.20
2018-06-03T07:20:55.418Z,44.70
2018-06-03T07:23:26.367Z,47.53
2018-06-03T07:25:55.976Z,48.77
2018-06-03T07:28:26.445Z,46.77
2018-06-03T07:30:55.187Z,46.33
2018-06-03T07:33:24.620Z,45.40
2018-06-03T07:35:53.885Z,48.00
2018-06-03T07:38:24.485Z,46.03
2018-06-03T07:40:54.643Z,47.23
2018-06-03T07:43:25.690Z,45.43
2018-06-03T07:45:54.373Z,45.57
2018-06-03T07:48:23.028Z,46.70
2018-06-03T07:50:52.157Z,44.10
2018-06-03T07:53:21.159Z,44.70
2018-06-03T07:55:49.873Z,43.83
2018-06-03T07:58:20.462Z,42.30
2018-06-03T08:00:49.406Z,42.67
2018-06-03T08:03:19.375Z,42.27
2018-06-03T08:05:49.519Z,42.60
2018-06-03T08:08:19.610Z,43.10
2018-06-03T08:10:49.630Z,42.17
2018-06-03T08:13:19.389Z,40.90
2018-06-03T08:15:48.063Z,40.47
2018-06-03T08:18:17.174Z,40.60
2018-06-03T08:20:46.740Z,39.30
2018-06-03T08:23:17.493Z,41.23
2018-06-03T08:25:47.332Z,37.97
2018-06-03T08:28:17.213Z,38.13
2018-06-03T08:30:45.835Z,38.10
2018-06-03T08:33:15.405Z,38.60
2018-06-03T08:35:44.382Z,39.47
2018-06-03T08:38:13.145Z,39.00
2018-06-03T08:40:42.050Z,37.90
2018-06-03T08:43:10.701Z,40.50
2018-06-03T08:45:39.353Z,40.03
2018-06-03T08:48:08.397Z,41.37
2018-06-03T08:50:38.314Z,42.97
2018-06-03T08:53:07.156Z,41.77
2018-06-03T08:55:35.982Z,42.90
2018-06-03T08:58:05.283Z,43.13
2018-06-03T09:00:34.374Z,43.97
2018-06-03T09:03:02.938Z,44.47
2018-06-03T09:05:31.853Z,42.53
2018-06-03T09:08:00.790Z,40.80
2018-06-03T09:10:29.529Z,40.90
2018-06-03T09:12:59.337Z,43.07
2018-06-03T09:15:29.567Z,40.83
2018-06-03T09:17:58.251Z,40.23
2018-06-03T09:20:27.142Z,41.67
2018-06-03T09:22:56.493Z,42.77
2018-06-03T09:25:26.641Z,40.97
2018-06-03T09:27:55.638Z,41.37
2018-06-03T09:30:25.177Z,40.13
2018-06-03T09:32:55.417Z,42.77
2018-06-03T09:35:24.487Z,41.73
2018-06-03T09:37:53.151Z,40.00
2018-06-03T09:40:21.963Z,40.07
2018-06-03T09:42:50.914Z,39.40
2018-06-03T09:45:20.748Z,40.73
2018-06-03T09:47:49.682Z,41.53
2018-06-03T09:50:18.426Z,38.97
2018-06-03T09:52:53.970Z,39.07
2018-06-03T09:55:24.745Z,40.30
2018-06-03T09:57:56.639Z,39.30
2018-06-03T10:00:33.223Z,38.87
2018-06-03T10:03:02.827Z,38.53
2018-06-03T10:05:31.450Z,35.63
2018-06-03T10:08:00.406Z,34.80
2018-06-03T10:10:31.570Z,35.83
2018-06-03T10:13:01.437Z,36.00
2018-06-03T10:15:31.015Z,37.57
2018-06-03T10:18:00.172Z,37.20
2018-06-03T10:20:29.900Z,35.00
2018-06-03T10:22:59.278Z,33.43
2018-06-03T10:25:29.330Z,37.17
2018-06-03T10:27:59.592Z,34.30
2018-06-03T10:30:30.131Z,32.07
2018-06-03T10:32:58.912Z,36.23
2018-06-03T10:35:28.273Z,36.63
2018-06-03T10:37:58.298Z,36.13
2018-06-03T10:40:29.206Z,38.43
2018-06-03T10:42:59.762Z,37.53
2018-06-03T10:45:29.578Z,35.27
2018-06-03T10:47:58.325Z,37.40
2018-06-03T10:50:28.172Z,37.10
2018-06-03T10:52:57.739Z,35.10
2018-06-03T10:55:28.298Z,34.23
2018-06-03T10:57:58.161Z,34.03
2018-06-03T11:00:28.170Z,33.33
2018-06-03T11:02:58.070Z,32.73
2018-06-03T11:05:27.034Z,32.13
2018-06-03T11:07:56.387Z,34.10
2018-06-03T11:10:26.574Z,32.37
2018-06-03T11:12:58.883Z,34.43
2018-06-03T11:15:27.664Z,32.60
2018-06-03T11:17:56.300Z,32.57
2018-06-03T11:20:25.060Z,30.97
2018-06-03T11:22:53.958Z,31.80
2018-06-03T11:25:23.678Z,29.07
2018-06-03T11:27:54.754Z,29.80
2018-06-03T11:30:23.835Z,28.93
2018-06-03T11:32:52.743Z,27.47
2018-06-03T11:35:21.457Z,27.53
2018-06-03T11:37:50.647Z,25.87
2018-06-03T11:40:19.646Z,23.83
2018-06-03T11:42:48.343Z,22.83
2018-06-03T11:45:17.095Z,22.47
2018-06-03T11:47:45.810Z,21.53
2018-06-03T11:50:14.775Z,20.50
2018-06-03T11:52:44.481Z,19.20
2018-06-03T11:55:13.538Z,20.07
2018-06-03T11:57:56.225Z,22.80
2018-06-03T12:00:24.933Z,18.67
2018-06-03T12:02:53.847Z,18.10
2018-06-03T12:05:22.502Z,19.70
2018-06-03T12:07:51.617Z,18.53
2018-06-03T12:10:21.154Z,18.57
2018-06-03T12:12:49.868Z,18.50
2018-06-03T12:15:18.608Z,16.30
2018-06-03T12:17:48.317Z,16.87
2018-06-03T12:20:17.416Z,15.67
2018-06-03T12:22:46.165Z,14.70
2018-06-03T12:25:16.189Z,14.80
2018-06-03T12:27:44.985Z,15.10
2018-06-03T12:30:13.715Z,14.80
2018-06-03T12:32:42.329Z,16.13
2018-06-03T12:35:11.017Z,15.80
2018-06-03T12:37:40.024Z,16.67
2018-06-03T12:40:08.827Z,16.33
2018-06-03T12:42:37.484Z,16.10
2018-06-03T12:45:06.165Z,15.90
2018-06-03T12:47:36.289Z,16.17
2018-06-03T12:50:05.826Z,17.40
2018-06-03T12:52:34.892Z,14.10
2018-06-03T12:55:04.529Z,14.63
2018-06-03T12:57:33.287Z,15.50
2018-06-03T13:00:01.954Z,15.20
2018-06-03T13:02:31.161Z,15.63
2018-06-03T13:04:59.855Z,15.73
2018-06-03T13:07:29.127Z,15.33
2018-06-03T13:09:57.846Z,16.23
2018-06-03T13:12:26.622Z,14.90
2018-06-03T13:14:55.272Z,14.60
2018-06-03T13:17:24.010Z,15.30
2018-06-03T13:19:53.926Z,16.33
2018-06-03T13:22:22.655Z,14.73
2018-06-03T13:24:51.532Z,14.67
2018-06-03T13:27:20.246Z,15.70
2018-06-03T13:29:49.767Z,15.50
2018-06-03T13:32:18.577Z,15.77
2018-06-03T13:34:47.325Z,14.80
2018-06-03T13:37:16.338Z,14.03
2018-06-03T13:39:46.011Z,15.37
2018-06-03T13:42:14.840Z,13.90
2018-06-03T13:44:43.775Z,13.60
2018-06-03T13:47:12.550Z,13.20
2018-06-03T13:49:41.615Z,13.40
2018-06-03T13:52:10.258Z,13.80
2018-06-03T13:54:39.428Z,11.50
2018-06-03T13:57:08.756Z,11.70
2018-06-03T13:59:37.561Z,11.77
2018-06-03T14:02:06.267Z,11.93
2018-06-03T14:04:35.015Z,11.60
2018-06-03T14:07:04.036Z,11.13
2018-06-03T14:09:33.081Z,12.50
2018-06-03T14:12:01.871Z,12.00
2018-06-03T14:14:30.756Z,12.50
2018-06-03T14:16:59.696Z,11.40
2018-06-03T14:19:28.669Z,11.87
2018-06-03T14:21:57.772Z,12.07
2018-06-03T14:24:27.109Z,11.60
2018-06-03T14:26:55.948Z,12.13
2018-06-03T14:29:25.000Z,13.00
2018-06-03T14:31:53.760Z,13.47
2018-06-03T14:34:22.749Z,12.73
2018-06-03T14:36:51.771Z,12.80
2018-06-03T14:39:20.583Z,12.20
2018-06-03T14:41:50.708Z,13.07
2018-06-03T14:44:19.778Z,13.60
2018-06-03T14:46:48.663Z,13.00
2018-06-03T14:49:17.406Z,14.10
2018-06-03T14:51:46.829Z,14.10
2018-06-03T14:54:15.611Z,14.23
2018-06-03T14:56:44.315Z,14.00
2018-06-03T14:59:13.072Z,13.87
2018-06-03T15:01:41.788Z,14.13
2018-06-03T15:04:10.956Z,14.50
2018-06-03T15:06:39.838Z,13.83
2018-06-03T15:09:08.871Z,14.30
2018-06-03T15:11:37.774Z,14.67
2018-06-03T15:14:06.887Z,15.80
2018-06-03T15:16:35.652Z,16.47
2018-06-03T15:19:04.475Z,14.50
2018-06-03T15:21:33.127Z,16.70
2018-06-03T15:24:01.929Z,15.57
2018-06-03T15:26:30.831Z,16.40
2018-06-03T15:28:59.885Z,15.70
2018-06-03T15:31:29.202Z,14.70
2018-06-03T15:33:58.500Z,14.70
2018-06-03T15:36:27.120Z,15.83
2018-06-03T15:38:56.289Z,15.87
2018-06-03T15:41:25.359Z,16.17
2018-06-03T15:43:54.227Z,16.30
2018-06-03T15:46:22.920Z,14.57
2018-06-03T15:48:52.323Z,16.40
2018-06-03T15:51:21.189Z,15.70
2018-06-03T15:53:50.065Z,15.97
2018-06-03T15:56:18.985Z,14.90
2018-06-03T15:58:51.128Z,14.40
2018-06-03T16:01:20.891Z,14.60
2018-06-03T16:03:50.682Z,15.10
2018-06-03T16:06:19.751Z,15.63
2018-06-03T16:08:48.917Z,15.70
2018-06-03T16:11:18.188Z,16.23
2018-06-03T16:13:47.322Z,14.63
2018-06-03T16:16:16.287Z,15.37
2018-06-03T16:18:45.193Z,13.90
2018-06-03T16:21:14.315Z,14.33
2018-06-03T16:23:43.250Z,15.00
2018-06-03T16:26:12.587Z,15.00
2018-06-03T16:28:41.453Z,15.83
2018-06-03T16:31:10.149Z,14.60
2018-06-03T16:33:38.802Z,15.10
2018-06-03T16:36:07.789Z,14.93
2018-06-03T16:38:36.606Z,15.77
2018-06-03T16:41:05.333Z,14.50
2018-06-03T16:43:34.247Z,15.80
2018-06-03T16:46:03.052Z,15.53
2018-06-03T16:48:32.434Z,15.73
2018-06-03T16:51:02.228Z,15.17
2018-06-03T16:53:31.764Z,14.57
2018-06-03T16:56:00.864Z,15.07
2018-06-03T16:58:30.171Z,15.97
2018-06-03T17:00:59.478Z,14.50
2018-06-03T17:03:28.147Z,15.53
2018-06-03T17:05:57.255Z,15.80
2018-06-03T17:08:26.155Z,15.73
2018-06-03T17:10:55.274Z,15.50
2018-06-03T17:13:24.048Z,15.87
2018-06-03T17:15:53.092Z,16.50
2018-06-03T17:18:21.880Z,15.40
2018-06-03T17:20:50.639Z,15.90
2018-06-03T17:23:25.808Z,15.93
2018-06-03T17:25:54.801Z,15.50
2018-06-03T17:28:24.030Z,16.37
2018-06-03T17:30:54.810Z,16.17
2018-06-03T17:33:23.788Z,15.67
2018-06-03T17:35:52.750Z,16.00
2018-06-03T17:38:21.577Z,15.60
2018-06-03T17:40:50.201Z,15.80
2018-06-03T17:43:19.056Z,15.93
2018-06-03T17:45:47.854Z,15.33
2018-06-03T17:48:16.704Z,15.87
2018-06-03T17:50:45.950Z,16.40
2018-06-03T17:53:15.300Z,17.60
2018-06-03T17:55:44.252Z,16.57
2018-06-03T17:58:12.983Z,18.40
2018-06-03T18:00:42.130Z,16.03
2018-06-03T18:03:10.947Z,15.70
2018-06-03T18:05:40.336Z,17.43
2018-06-03T18:08:09.559Z,16.50
2018-06-03T18:10:38.439Z,17.47
2018-06-03T18:13:07.756Z,16.23
2018-06-03T18:15:36.530Z,17.80
2018-06-03T18:18:05.262Z,17.63
2018-06-03T18:20:34.012Z,18.50
2018-06-03T18:23:02.883Z,17.70
2018-06-03T18:25:31.918Z,18.77
2018-06-03T18:28:01.265Z,17.77
2018-06-03T18:30:30.191Z,16.80
2018-06-03T18:32:59.303Z,18.00
2018-06-03T18:35:28.291Z,17.77
2018-06-03T18:37:58.603Z,18.33
2018-06-03T18:40:27.335Z,17.43
2018-06-03T18:42:56.074Z,17.90
2018-06-03T18:45:24.951Z,17.53
2018-06-03T18:47:53.625Z,17.00
2018-06-03T18:50:22.513Z,17.30
2018-06-03T18:52:51.457Z,18.37
2018-06-03T18:55:20.270Z,17.93
2018-06-03T18:57:48.966Z,17.70
2018-06-03T19:00:17.907Z,16.87
2018-06-03T19:02:47.031Z,17.47
2018-06-03T19:05:15.897Z,17.73
2018-06-03T19:07:44.646Z,18.20
2018-06-03T19:10:13.483Z,18.03
2018-06-03T19:12:42.291Z,18.30
2018-06-03T19:15:11.070Z,17.60
2018-06-03T19:17:39.931Z,17.30
2018-06-03T19:20:08.791Z,18.30
2018-06-03T19:22:37.540Z,17.53
2018-06-03T19:25:06.336Z,18.20
2018-06-03T19:27:35.679Z,17.30
2018-06-03T19:30:04.717Z,17.63
2018-06-03T19:32:33.603Z,17.27
2018-06-03T19:35:02.689Z,17.63
2018-06-03T19:37:31.847Z,18.30
2018-06-03T19:40:00.960Z,18.30
2018-06-03T19:42:29.665Z,18.37
2018-06-03T19:44:58.979Z,18.50
2018-06-03T19:47:28.518Z,16.97
2018-06-03T19:49:57.917Z,18.60
2018-06-03T19:52:28.669Z,18.03
2018-06-03T19:54:58.334Z,17.70
2018-06-03T19:57:27.147Z,18.07
2018-06-03T19:59:56.220Z,18.27
2018-06-03T20:02:25.461Z,17.40
2018-06-03T20:04:54.711Z,17.63
2018-06-03T20:07:24.080Z,17.40
2018-06-03T20:09:53.883Z,19.80
2018-06-03T20:12:24.992Z,19.23
2018-06-03T20:14:54.186Z,19.10
2018-06-03T20:17:24.380Z,20.53
2018-06-03T20:19:53.181Z,31.40
2018-06-03T20:22:23.495Z,21.70
2018-06-03T20:24:52.153Z,21.33
2018-06-03T20:27:21.282Z,20.40
2018-06-03T20:29:50.059Z,20.83
2018-06-03T20:32:19.330Z,21.60
2018-06-03T20:34:48.478Z,22.77
2018-06-03T20:37:17.454Z,21.73
2018-06-03T20:39:46.360Z,22.57
2018-06-03T20:42:15.279Z,22.23
2018-06-03T20:44:44.170Z,24.37
2018-06-03T20:47:13.227Z,23.90
2018-06-03T20:49:42.256Z,25.37
2018-06-03T20:52:11.071Z,24.97
2018-06-03T20:54:42.463Z,24.70
2018-06-03T20:57:11.517Z,25.50
2018-06-03T20:59:40.447Z,25.10
2018-06-03T21:02:09.269Z,25.77
2018-06-03T21:04:38.327Z,26.03
2018-06-03T21:07:07.470Z,24.13
2018-06-03T21:09:36.909Z,25.83
2018-06-03T21:12:06.466Z,24.40
2018-06-03T21:14:35.188Z,24.80
2018-06-03T21:17:04.215Z,23.70
2018-06-03T21:19:32.903Z,23.50
2018-06-03T21:22:01.539Z,23.37
2018-06-03T21:24:30.417Z,24.50
2018-06-03T21:26:59.671Z,25.97
2018-06-03T21:29:28.887Z,23.63
2018-06-03T21:31:57.660Z,23.60
2018-06-03T21:34:26.322Z,23.00
2018-06-03T21:36:55.753Z,24.93
2018-06-03T21:39:24.377Z,24.07
2018-06-03T21:41:53.050Z,23.80
2018-06-03T21:44:21.817Z,23.40
2018-06-03T21:46:50.498Z,23.50
2018-06-03T21:49:19.201Z,23.70
2018-06-03T21:51:48.109Z,25.20
2018-06-03T21:54:17.043Z,25.80
2018-06-03T21:56:46.326Z,24.50
2018-06-03T21:59:14.950Z,25.30
2018-06-03T22:01:43.738Z,23.30
2018-06-03T22:04:12.666Z,23.33
2018-06-03T22:06:41.315Z,24.37
2018-06-03T22:09:10.175Z,25.73
2018-06-03T22:11:38.907Z,25.07
2018-06-03T22:14:07.958Z,23.93
2018-06-03T22:16:36.809Z,24.63
2018-06-03T22:19:05.713Z,25.33
2018-06-03T22:21:34.696Z,23.30
2018-06-03T22:24:03.656Z,24.40
2018-06-03T22:26:32.651Z,23.83
2018-06-03T22:29:01.768Z,23.23
2018-06-03T22:31:30.455Z,26.13
2018-06-03T22:33:59.141Z,24.10
2018-06-03T22:36:28.212Z,24.50
2018-06-03T22:38:57.263Z,23.97
2018-06-03T22:41:26.829Z,25.10
2018-06-03T22:43:56.077Z,25.73
2018-06-03T22:46:24.768Z,25.83
2018-06-03T22:48:53.841Z,24.57
2018-06-03T22:51:22.583Z,25.80
2018-06-03T22:53:51.880Z,24.90
2018-06-03T22:56:20.930Z,24.63
2018-06-03T22:58:49.855Z,25.03
2018-06-03T23:01:18.548Z,25.40
2018-06-03T23:03:47.338Z,26.30
2018-06-03T23:06:16.030Z,25.93
2018-06-03T23:08:44.728Z,26.60
2018-06-03T23:11:13.915Z,25.23
2018-06-03T23:13:42.629Z,26.30
2018-06-03T23:16:11.314Z,25.60
2018-06-03T23:18:39.927Z,25.10
2018-06-03T23:21:08.966Z,25.43
2018-06-03T23:23:37.888Z,25.90
2018-06-03T23:26:06.599Z,25.30
2018-06-03T23:28:35.261Z,26.90
2018-06-03T23:31:04.384Z,27.33
2018-06-03T23:33:33.349Z,26.57
2018-06-03T23:36:02.900Z,25.90
2018-06-03T23:38:32.576Z,26.00
2018-06-03T23:41:01.637Z,26.03
2018-06-03T23:43:30.241Z,26.70
2018-06-03T23:45:58.953Z,25.50
2018-06-03T23:48:27.923Z,24.53
2018-06-03T23:50:56.507Z,25.03
2018-06-03T23:53:25.149Z,25.57
2018-06-03T23:55:54.090Z,23.40
2018-06-03T23:58:23.594Z,24.90
